• Join FlightAware (Why Join?)
  • Login
  • US Flag 
01:07AM EST


 

Airport Tracker/Info


-or-


 

Live Flight TrackerFlight Track Log ✈ N96FB ✈ 20-May-2013 ✈ KLIT - KMEZ

Flight Track Log - Related Links

Times and Time Zones

All times are in EDT time to prevent confusion due to time zone crossing. See the N96FB flight status page for this flight to view local times or setup timezone preferences in your user account.

Time Position Orientation Groundspeed Altitude Reporting Facility
EDT Latitude Longitude Course Direction KTS MPH feet Rate Location/Type
09:33AM 34.7158 -92.2419 228° Southwest 132 152 900  Level Memphis Center
09:34AM 34.6922 -92.2742 228° Southwest 174 200 3,200 2,224 Climbing Memphis Center
09:35AM 34.6892 -92.3322 266° West 184 212 5,200 1,884 Climbing Memphis Center
09:36AM 34.6861 -92.3978 267° West 186 214 7,000 1,512 Climbing Memphis Center
09:37AM 34.6786 -92.4683 263° West 201 231 8,400 1,116 Climbing Memphis Center
09:38AM 34.6731 -92.5542 266° West 228 262 9,400 2,625 Climbing Memphis Center
09:39AM 34.6633 -92.6372 262° West 243 280 14,000 1,250 Climbing Memphis Center
09:40AM 34.6575 -92.7128 265° West 243 280 11,900 -350 Descending Memphis Center
09:41AM 34.6561 -92.7883 269° West 237 273 13,300 1,050 Climbing Memphis Center
09:42AM 34.6486 -92.8614 263° West 230 265 14,000 350 Climbing Memphis Center
09:43AM 34.6406 -92.9444 263° West 237 273 14,000 50 Level Memphis Center
09:44AM 34.6264 -93.0275 258° West 242 278 14,100 -50 Climbing Memphis Center
09:45AM 34.6244 -93.1156 268° West 247 284 13,900 -100 Descending Memphis Center
09:46AM 34.6100 -93.1933 257° West 252 290 13,900 50 Level Memphis Center
09:47AM 34.6019 -93.2789 263° West 257 296 14,000 -450 Climbing Memphis Center
09:48AM 34.5936 -93.3669 263° West 257 296 13,000 -1,150 Descending Memphis Center
09:49AM 34.5789 -93.4547 259° West 262 302 11,700 -1,500 Descending Memphis Center
09:50AM 34.5581 -93.5397 253° West 262 302 10,000 -1,650 Descending Memphis Center
09:51AM 34.5369 -93.6194 252° West 262 302 8,400 -1,450 Descending Memphis Center
09:52AM 34.5225 -93.6972 257° West 252 290 7,100 -1,250 Descending Memphis Center
09:53AM 34.5267 -93.7756 274° West 240 276 5,900 -1,200 Descending Memphis Center
09:54AM 34.5353 -93.8439 279° West 227 261 4,700 -750 Descending Memphis Center
09:55AM 34.5417 -93.9097 277° West 211 243 4,400 -300 Descending Memphis Center